createdAt,value
2023-01-25T00:01:33.548Z,1.00
2023-01-25T00:04:11.079Z,1.00
2023-01-25T00:06:47.283Z,1.00
2023-01-25T00:09:26.791Z,1.00
2023-01-25T00:12:03.307Z,1.00
2023-01-25T00:14:39.829Z,1.00
2023-01-25T00:17:16.400Z,1.00
2023-01-25T00:19:52.971Z,1.00
2023-01-25T00:22:29.232Z,1.00
2023-01-25T00:25:06.400Z,1.00
2023-01-25T00:27:42.892Z,1.00
2023-01-25T00:30:20.813Z,1.00
2023-01-25T00:33:08.702Z,1.02
2023-01-25T00:35:46.955Z,1.00
2023-01-25T00:38:35.447Z,1.00
2023-01-25T00:41:13.317Z,1.04
2023-01-25T00:43:49.840Z,1.08
2023-01-25T00:46:26.104Z,1.10
2023-01-25T00:49:02.351Z,1.10
2023-01-25T00:51:38.719Z,1.10
2023-01-25T00:54:15.078Z,1.10
2023-01-25T00:56:53.878Z,1.10
2023-01-25T00:59:30.937Z,1.10
2023-01-25T01:02:07.670Z,1.10
2023-01-25T01:04:44.020Z,1.10
2023-01-25T01:07:20.991Z,1.10
2023-01-25T01:09:57.180Z,1.10
2023-01-25T01:12:34.235Z,1.10
2023-01-25T01:15:12.986Z,1.12
2023-01-25T01:17:49.369Z,1.14
2023-01-25T01:20:26.210Z,1.20
2023-01-25T01:23:03.374Z,1.20
2023-01-25T01:25:39.905Z,1.20
2023-01-25T01:28:17.958Z,1.20
2023-01-25T01:30:54.433Z,1.20
2023-01-25T01:33:31.211Z,1.20
2023-01-25T01:36:14.775Z,1.20
2023-01-25T01:38:51.087Z,1.20
2023-01-25T01:41:27.724Z,1.20
2023-01-25T01:44:04.070Z,1.20
2023-01-25T01:46:42.968Z,1.20
2023-01-25T01:49:28.191Z,1.20
2023-01-25T01:52:15.885Z,1.20
2023-01-25T01:54:58.486Z,1.12
2023-01-25T01:57:42.841Z,1.10
2023-01-25T02:00:27.841Z,1.10
2023-01-25T02:03:05.142Z,1.18
2023-01-25T02:05:53.289Z,1.18
2023-01-25T02:08:40.943Z,1.10
2023-01-25T02:11:18.304Z,1.14
2023-01-25T02:13:57.356Z,1.14
2023-01-25T02:16:34.326Z,1.12
2023-01-25T02:19:25.317Z,1.10
2023-01-25T02:22:07.798Z,1.10
2023-01-25T02:24:54.975Z,1.10
2023-01-25T02:27:31.918Z,1.14
2023-01-25T02:30:10.693Z,1.10
2023-01-25T02:32:47.406Z,1.10
2023-01-25T02:35:42.457Z,1.10
2023-01-25T02:38:22.370Z,1.10
2023-01-25T02:41:09.292Z,1.14
2023-01-25T02:43:45.937Z,1.14
2023-01-25T02:46:32.679Z,1.10
2023-01-25T02:49:12.336Z,1.14
2023-01-25T02:51:52.388Z,1.10
2023-01-25T02:54:29.633Z,1.10
2023-01-25T02:57:06.198Z,1.10
2023-01-25T02:59:49.426Z,1.16
2023-01-25T03:02:26.124Z,1.18
2023-01-25T03:05:02.448Z,1.20
2023-01-25T03:07:38.783Z,1.20
2023-01-25T03:10:16.825Z,1.20
2023-01-25T03:12:53.281Z,1.10
2023-01-25T03:15:32.034Z,1.10
2023-01-25T03:18:08.588Z,1.10
2023-01-25T03:20:44.878Z,1.10
2023-01-25T03:23:21.512Z,1.10
2023-01-25T03:26:05.211Z,1.10
2023-01-25T03:28:44.158Z,1.10
2023-01-25T03:31:21.862Z,1.10
2023-01-25T03:33:58.229Z,1.10
2023-01-25T03:36:37.203Z,1.10
2023-01-25T03:39:13.885Z,1.10
2023-01-25T03:41:52.908Z,1.06
2023-01-25T03:44:29.724Z,1.00
2023-01-25T03:47:07.574Z,1.00
2023-01-25T03:49:44.611Z,1.00
2023-01-25T03:52:21.383Z,1.08
2023-01-25T03:55:00.893Z,1.10
2023-01-25T03:57:37.912Z,1.10
2023-01-25T04:00:20.081Z,1.10
2023-01-25T04:02:57.387Z,1.10
2023-01-25T04:05:34.067Z,1.08
2023-01-25T04:08:10.403Z,1.10
2023-01-25T04:10:53.681Z,1.08
2023-01-25T04:13:30.575Z,1.08
2023-01-25T04:16:09.240Z,1.06
2023-01-25T04:19:09.303Z,1.10
2023-01-25T04:21:46.026Z,1.10
2023-01-25T04:24:22.641Z,1.10
2023-01-25T04:26:59.289Z,1.10
2023-01-25T04:29:41.806Z,1.10
2023-01-25T04:32:21.817Z,1.10
2023-01-25T04:34:58.157Z,1.10
2023-01-25T04:37:36.376Z,1.10
2023-01-25T04:40:15.287Z,1.10
2023-01-25T04:42:53.260Z,1.10
2023-01-25T04:45:30.288Z,1.10
2023-01-25T04:48:10.868Z,1.10
2023-01-25T04:50:50.455Z,1.02
2023-01-25T04:53:28.725Z,1.06
2023-01-25T04:56:10.699Z,1.04
2023-01-25T04:59:08.660Z,1.04
2023-01-25T05:01:45.077Z,1.02
2023-01-25T05:04:21.708Z,1.08
2023-01-25T05:06:59.023Z,1.08
2023-01-25T05:09:35.530Z,1.10
2023-01-25T05:12:13.844Z,1.08
2023-01-25T05:15:39.367Z,1.00
2023-01-25T05:18:16.104Z,1.00
2023-01-25T05:20:57.148Z,1.00
2023-01-25T05:23:34.410Z,1.02
2023-01-25T05:26:30.893Z,1.02
2023-01-25T05:29:07.493Z,1.00
2023-01-25T05:31:50.933Z,1.04
2023-01-25T05:34:28.189Z,1.06
2023-01-25T05:37:05.951Z,1.06
2023-01-25T05:39:43.685Z,1.06
2023-01-25T05:42:21.815Z,1.02
2023-01-25T05:44:58.082Z,1.04
2023-01-25T05:47:34.548Z,1.08
2023-01-25T05:50:13.828Z,1.02
2023-01-25T05:53:33.369Z,1.08
2023-01-25T05:56:14.340Z,1.10
2023-01-25T05:58:53.471Z,1.10
2023-01-25T06:01:30.698Z,1.10
2023-01-25T06:04:07.803Z,1.10
2023-01-25T06:06:44.160Z,1.10
2023-01-25T06:09:20.818Z,1.10
2023-01-25T06:11:57.144Z,1.10
2023-01-25T06:14:33.420Z,1.10
2023-01-25T06:17:11.342Z,1.10
2023-01-25T06:20:07.914Z,1.10
2023-01-25T06:22:50.032Z,1.10
2023-01-25T06:25:26.438Z,1.10
2023-01-25T06:28:02.661Z,1.10
2023-01-25T06:30:39.133Z,1.10
2023-01-25T06:33:15.482Z,1.10
2023-01-25T06:35:52.596Z,1.10
2023-01-25T06:38:29.362Z,1.10
2023-01-25T06:41:13.001Z,1.10
2023-01-25T06:43:51.227Z,1.10
2023-01-25T06:46:27.862Z,1.10
2023-01-25T06:49:04.178Z,1.10
2023-01-25T06:51:40.384Z,1.10
2023-01-25T06:54:16.776Z,1.10
2023-01-25T06:56:52.984Z,1.10
2023-01-25T06:59:29.446Z,1.10
2023-01-25T07:02:06.347Z,1.10
2023-01-25T07:04:43.431Z,1.10
2023-01-25T07:07:20.081Z,1.10
2023-01-25T07:09:56.668Z,1.10
2023-01-25T07:12:34.184Z,1.10
2023-01-25T07:15:12.812Z,1.18
2023-01-25T07:17:49.045Z,1.20
2023-01-25T07:20:25.367Z,1.20
2023-01-25T07:23:02.310Z,1.20
2023-01-25T07:25:38.735Z,1.20
2023-01-25T07:28:15.231Z,1.20
2023-01-25T07:30:51.876Z,1.20
2023-01-25T07:33:28.242Z,1.20
2023-01-25T07:36:10.340Z,1.20
2023-01-25T07:38:47.020Z,1.22
2023-01-25T07:41:23.817Z,1.24
2023-01-25T07:44:01.383Z,1.30
2023-01-25T07:46:50.276Z,1.30
2023-01-25T07:49:26.503Z,1.30
2023-01-25T07:52:02.862Z,1.30
2023-01-25T07:54:39.227Z,1.30
2023-01-25T07:57:16.312Z,1.36
2023-01-25T07:59:52.774Z,1.40
2023-01-25T08:02:29.129Z,1.40
2023-01-25T08:05:06.540Z,1.40
2023-01-25T08:07:43.207Z,1.40
2023-01-25T08:10:19.602Z,1.46
2023-01-25T08:12:56.048Z,1.50
2023-01-25T08:15:32.408Z,1.50
2023-01-25T08:18:08.981Z,1.50
2023-01-25T08:20:45.309Z,1.58
2023-01-25T08:23:22.636Z,1.60
2023-01-25T08:26:02.432Z,1.66
2023-01-25T08:28:39.086Z,1.70
2023-01-25T08:31:19.283Z,1.80
2023-01-25T08:33:56.189Z,1.80
2023-01-25T08:36:32.968Z,1.88
2023-01-25T08:39:13.013Z,1.90
2023-01-25T08:41:49.248Z,1.92
2023-01-25T08:44:26.132Z,2.00
2023-01-25T08:47:02.467Z,2.00
2023-01-25T08:49:39.047Z,2.00
2023-01-25T08:52:16.029Z,2.10
2023-01-25T08:54:52.759Z,2.10
2023-01-25T08:57:29.430Z,2.20
2023-01-25T09:00:07.878Z,2.20
2023-01-25T09:02:44.612Z,2.22
2023-01-25T09:05:21.689Z,2.30
2023-01-25T09:07:59.838Z,2.40
2023-01-25T09:10:36.896Z,2.40
2023-01-25T09:13:14.455Z,2.50
2023-01-25T09:15:51.050Z,2.50
2023-01-25T09:18:27.462Z,2.54
2023-01-25T09:21:09.431Z,2.60
2023-01-25T09:24:05.345Z,2.60
2023-01-25T09:26:55.717Z,2.60
2023-01-25T09:29:32.982Z,2.70
2023-01-25T09:32:10.739Z,2.70
2023-01-25T09:34:59.050Z,2.70
2023-01-25T09:37:35.549Z,2.80
2023-01-25T09:40:27.711Z,2.80
2023-01-25T09:43:13.003Z,2.90
2023-01-25T09:45:50.305Z,2.90
2023-01-25T09:48:42.376Z,3.00
2023-01-25T09:51:27.347Z,3.10
2023-01-25T09:54:04.200Z,3.10
2023-01-25T09:56:42.535Z,3.10
2023-01-25T09:59:26.491Z,3.10
2023-01-25T10:02:11.591Z,3.10
2023-01-25T10:04:52.814Z,3.10
2023-01-25T10:07:46.914Z,3.02
2023-01-25T10:10:31.788Z,3.10
2023-01-25T10:13:12.977Z,3.10
2023-01-25T10:15:54.349Z,3.16
2023-01-25T10:18:40.496Z,3.20
2023-01-25T10:21:28.255Z,3.20
2023-01-25T10:24:41.966Z,3.20
2023-01-25T10:27:36.900Z,3.30
2023-01-25T10:30:40.045Z,3.30
2023-01-25T10:33:21.618Z,3.40
2023-01-25T10:36:03.869Z,3.44
2023-01-25T10:38:45.495Z,3.40
2023-01-25T10:41:32.720Z,3.50
2023-01-25T10:44:26.083Z,3.60
2023-01-25T10:47:13.151Z,3.60
2023-01-25T10:49:55.058Z,3.70
2023-01-25T10:52:32.053Z,3.70
2023-01-25T10:55:23.300Z,3.70
2023-01-25T10:58:01.838Z,3.72
2023-01-25T11:00:42.581Z,3.80
2023-01-25T11:03:34.847Z,3.80
2023-01-25T11:06:12.783Z,3.80
2023-01-25T11:08:50.748Z,3.80
2023-01-25T11:11:41.428Z,3.80
2023-01-25T11:14:27.745Z,3.80
2023-01-25T11:17:07.415Z,3.80
2023-01-25T11:19:45.240Z,3.80
2023-01-25T11:22:29.360Z,3.80
2023-01-25T11:25:30.648Z,3.72
2023-01-25T11:28:25.060Z,3.70
2023-01-25T11:31:02.098Z,3.70
2023-01-25T11:33:38.463Z,3.68
2023-01-25T11:36:42.579Z,3.60
2023-01-25T11:39:43.627Z,3.60
2023-01-25T11:42:42.791Z,3.60
2023-01-25T11:45:52.110Z,3.60
2023-01-25T11:49:07.082Z,3.58
2023-01-25T11:51:55.760Z,3.50
2023-01-25T11:55:05.952Z,3.50
2023-01-25T11:58:07.592Z,3.40
2023-01-25T12:01:04.224Z,3.40
2023-01-25T12:04:32.643Z,3.40
2023-01-25T12:07:15.265Z,3.40
2023-01-25T12:10:16.259Z,3.40
2023-01-25T12:13:03.924Z,3.40
2023-01-25T12:16:15.116Z,3.40
2023-01-25T12:19:36.305Z,3.40
2023-01-25T12:22:56.085Z,3.34
2023-01-25T12:25:47.565Z,3.30
2023-01-25T12:28:33.182Z,3.30
2023-01-25T12:31:23.437Z,3.30
2023-01-25T12:34:04.280Z,3.30
2023-01-25T12:36:47.174Z,3.30
2023-01-25T12:39:32.325Z,3.20
2023-01-25T12:42:21.586Z,3.20
2023-01-25T12:45:06.262Z,3.20
2023-01-25T12:47:51.924Z,3.16
2023-01-25T12:50:36.909Z,3.10
2023-01-25T12:53:24.343Z,3.10
2023-01-25T12:56:03.329Z,3.00
2023-01-25T12:58:51.996Z,3.00
2023-01-25T13:01:39.869Z,2.90
2023-01-25T13:04:46.301Z,2.90
2023-01-25T13:07:32.025Z,2.80
2023-01-25T13:10:25.886Z,2.80
2023-01-25T13:13:19.383Z,2.80
2023-01-25T13:15:56.810Z,2.80
2023-01-25T13:18:50.224Z,2.80
2023-01-25T13:21:52.506Z,2.80
2023-01-25T13:24:31.028Z,2.80
2023-01-25T13:27:30.367Z,2.80
2023-01-25T13:30:36.374Z,2.80
2023-01-25T13:33:32.581Z,2.70
2023-01-25T13:36:47.945Z,2.66
2023-01-25T13:39:51.267Z,2.62
2023-01-25T13:42:33.491Z,2.60
2023-01-25T13:45:21.485Z,2.60
2023-01-25T13:48:19.167Z,2.50
2023-01-25T13:51:02.126Z,2.50
2023-01-25T13:53:39.839Z,2.50
2023-01-25T13:56:35.479Z,2.50
2023-01-25T13:59:26.850Z,2.46
2023-01-25T14:02:04.411Z,2.40
2023-01-25T14:04:40.954Z,2.40
2023-01-25T14:07:23.076Z,2.30
2023-01-25T14:10:01.900Z,2.30
2023-01-25T14:12:43.216Z,2.20
2023-01-25T14:15:31.337Z,2.20
2023-01-25T14:18:20.811Z,2.16
2023-01-25T14:21:13.497Z,2.10
2023-01-25T14:23:52.236Z,2.00
2023-01-25T14:26:39.690Z,2.00
2023-01-25T14:29:32.413Z,1.90
2023-01-25T14:32:20.808Z,1.90
2023-01-25T14:34:57.323Z,1.90
2023-01-25T14:37:33.817Z,1.82
2023-01-25T14:40:22.247Z,1.80
2023-01-25T14:43:00.428Z,1.80
2023-01-25T14:45:37.112Z,1.80
2023-01-25T14:48:45.211Z,1.80
2023-01-25T14:51:31.272Z,1.80
2023-01-25T14:54:18.615Z,1.80
2023-01-25T14:56:58.511Z,1.80
2023-01-25T14:59:43.382Z,1.72
2023-01-25T15:02:34.149Z,1.72
2023-01-25T15:05:24.805Z,1.72
2023-01-25T15:08:18.060Z,1.70
2023-01-25T15:11:21.390Z,1.70
2023-01-25T15:14:17.814Z,1.70
2023-01-25T15:16:56.106Z,1.70
2023-01-25T15:19:35.439Z,1.68
2023-01-25T15:22:13.920Z,1.60
2023-01-25T15:24:58.069Z,1.60
2023-01-25T15:27:36.383Z,1.60
2023-01-25T15:30:19.510Z,1.60
2023-01-25T15:32:56.475Z,1.60
2023-01-25T15:35:34.667Z,1.60
2023-01-25T15:38:16.172Z,1.56
2023-01-25T15:40:53.238Z,1.56
2023-01-25T15:43:30.101Z,1.50
2023-01-25T15:46:07.935Z,1.52
2023-01-25T15:48:47.340Z,1.50
2023-01-25T15:51:24.593Z,1.50
2023-01-25T15:54:01.081Z,1.50
2023-01-25T15:56:41.917Z,1.50
2023-01-25T15:59:22.529Z,1.50
2023-01-25T16:01:59.185Z,1.50
2023-01-25T16:04:37.923Z,1.50
2023-01-25T16:07:27.095Z,1.50
2023-01-25T16:10:04.149Z,1.50
2023-01-25T16:12:40.349Z,1.50
2023-01-25T16:15:18.099Z,1.50
2023-01-25T16:17:54.661Z,1.50
2023-01-25T16:20:31.327Z,1.50
2023-01-25T16:23:08.445Z,1.50
2023-01-25T16:25:48.948Z,1.50
2023-01-25T16:28:25.559Z,1.50
2023-01-25T16:31:02.006Z,1.50
2023-01-25T16:33:38.465Z,1.50
2023-01-25T16:36:22.980Z,1.50
2023-01-25T16:39:04.932Z,1.50
2023-01-25T16:41:39.640Z,1.50
2023-01-25T16:44:16.125Z,1.48
2023-01-25T16:46:52.950Z,1.50
2023-01-25T16:49:30.742Z,1.50
2023-01-25T16:52:11.966Z,1.40
2023-01-25T16:54:48.238Z,1.40
2023-01-25T16:57:24.809Z,1.42
2023-01-25T17:00:03.368Z,1.40
2023-01-25T17:02:46.858Z,1.40
2023-01-25T17:05:34.379Z,1.40
2023-01-25T17:08:10.923Z,1.40
2023-01-25T17:10:47.319Z,1.40
2023-01-25T17:13:24.012Z,1.40
2023-01-25T17:16:03.354Z,1.40
2023-01-25T17:18:39.794Z,1.40
2023-01-25T17:21:19.433Z,1.40
2023-01-25T17:23:57.939Z,1.36
2023-01-25T17:26:35.702Z,1.30
2023-01-25T17:29:14.009Z,1.30
2023-01-25T17:31:50.654Z,1.30
2023-01-25T17:34:27.731Z,1.30
2023-01-25T17:37:04.187Z,1.30
2023-01-25T17:39:40.947Z,1.30
2023-01-25T17:42:17.209Z,1.30
2023-01-25T17:44:53.785Z,1.30
2023-01-25T17:47:31.726Z,1.32
2023-01-25T17:50:10.915Z,1.30
2023-01-25T17:52:47.588Z,1.30
2023-01-25T17:55:24.059Z,1.30
2023-01-25T17:58:00.745Z,1.30
2023-01-25T18:00:37.428Z,1.30
2023-01-25T18:03:14.696Z,1.30
2023-01-25T18:05:51.154Z,1.20
2023-01-25T18:08:27.520Z,1.20
2023-01-25T18:11:08.929Z,1.20
2023-01-25T18:13:51.843Z,1.20
2023-01-25T18:16:31.035Z,1.20
2023-01-25T18:19:08.688Z,1.20
2023-01-25T18:21:45.151Z,1.20
2023-01-25T18:24:34.488Z,1.20
2023-01-25T18:27:21.587Z,1.12
2023-01-25T18:30:23.821Z,1.10
2023-01-25T18:33:01.767Z,1.10
2023-01-25T18:35:38.381Z,1.10
2023-01-25T18:38:15.376Z,1.10
2023-01-25T18:40:51.699Z,1.10
2023-01-25T18:43:28.848Z,1.10
2023-01-25T18:46:05.871Z,1.10
2023-01-25T18:48:45.671Z,1.02
2023-01-25T18:51:23.369Z,1.00
2023-01-25T18:53:59.670Z,1.00
2023-01-25T18:56:35.981Z,0.90
2023-01-25T18:59:12.273Z,0.90
2023-01-25T19:01:48.652Z,0.90
2023-01-25T19:04:25.210Z,0.84
2023-01-25T19:07:01.739Z,0.80
2023-01-25T19:09:38.790Z,0.80
2023-01-25T19:12:15.178Z,0.80
2023-01-25T19:14:51.692Z,0.80
2023-01-25T19:17:28.122Z,0.76
2023-01-25T19:20:05.237Z,0.78
2023-01-25T19:22:42.058Z,0.78
2023-01-25T19:25:19.017Z,0.74
2023-01-25T19:27:55.444Z,0.70
2023-01-25T19:30:32.443Z,0.70
2023-01-25T19:33:09.146Z,0.70
2023-01-25T19:35:46.238Z,0.70
2023-01-25T19:38:22.697Z,0.70
2023-01-25T19:41:03.501Z,0.70
2023-01-25T19:43:41.555Z,0.70
2023-01-25T19:46:21.323Z,0.70
2023-01-25T19:48:59.915Z,0.70
2023-01-25T19:51:39.923Z,0.70
2023-01-25T19:54:18.974Z,0.70
2023-01-25T19:56:56.365Z,0.70
2023-01-25T19:59:33.666Z,0.70
2023-01-25T20:02:12.911Z,0.62
2023-01-25T20:04:49.448Z,0.60
2023-01-25T20:07:27.915Z,0.60
2023-01-25T20:10:04.947Z,0.60
2023-01-25T20:12:41.622Z,0.58
2023-01-25T20:15:18.556Z,0.50
2023-01-25T20:17:55.175Z,0.50
2023-01-25T20:20:31.598Z,0.50
2023-01-25T20:23:08.107Z,0.50
2023-01-25T20:25:44.577Z,0.44
2023-01-25T20:28:20.938Z,0.42
2023-01-25T20:30:59.674Z,0.40
2023-01-25T20:33:37.164Z,0.40
2023-01-25T20:36:14.355Z,0.40
2023-01-25T20:38:51.745Z,0.40
2023-01-25T20:41:28.627Z,0.40
2023-01-25T20:44:08.762Z,0.36
2023-01-25T20:46:47.027Z,0.30
2023-01-25T20:49:23.985Z,0.30
2023-01-25T20:52:00.314Z,0.30
2023-01-25T20:54:38.520Z,0.30
2023-01-25T20:57:14.783Z,0.30
2023-01-25T20:59:51.460Z,0.30
2023-01-25T21:02:28.117Z,0.30
2023-01-25T21:05:04.697Z,0.28
2023-01-25T21:07:40.959Z,0.20
2023-01-25T21:10:18.892Z,0.20
2023-01-25T21:12:55.255Z,0.22
2023-01-25T21:15:32.797Z,0.20
2023-01-25T21:18:10.238Z,0.22
2023-01-25T21:20:46.683Z,0.30
2023-01-25T21:23:22.933Z,0.30
2023-01-25T21:25:59.312Z,0.28
2023-01-25T21:28:36.402Z,0.20
2023-01-25T21:31:18.418Z,0.20
2023-01-25T21:33:55.696Z,0.20
2023-01-25T21:36:32.351Z,0.20
2023-01-25T21:39:08.961Z,0.20
2023-01-25T21:41:45.302Z,0.20
2023-01-25T21:44:39.813Z,0.20
2023-01-25T21:47:29.453Z,0.18
2023-01-25T21:50:24.962Z,0.10
2023-01-25T21:53:01.303Z,0.10
2023-01-25T21:55:37.876Z,0.10
2023-01-25T21:58:14.402Z,0.10
2023-01-25T22:00:50.706Z,0.10
2023-01-25T22:03:26.972Z,0.04
2023-01-25T22:06:03.344Z,0.00
2023-01-25T22:08:39.607Z,0.00
2023-01-25T22:11:16.498Z,0.00
2023-01-25T22:13:52.856Z,0.00
2023-01-25T22:16:30.492Z,-0.08
2023-01-25T22:19:07.427Z,-0.10
2023-01-25T22:21:43.680Z,-0.10
2023-01-25T22:24:20.645Z,-0.10
2023-01-25T22:27:31.706Z,-0.10
2023-01-25T22:30:11.128Z,-0.10
2023-01-25T22:32:47.488Z,-0.10
2023-01-25T22:35:23.772Z,-0.10
2023-01-25T22:38:00.058Z,-0.10
2023-01-25T22:40:36.624Z,-0.10
2023-01-25T22:43:13.193Z,-0.10
2023-01-25T22:45:56.819Z,-0.10
2023-01-25T22:48:34.042Z,-0.10
2023-01-25T22:51:15.743Z,-0.10
2023-01-25T22:53:52.412Z,-0.10
2023-01-25T22:56:32.112Z,-0.10
2023-01-25T22:59:08.475Z,-0.10
2023-01-25T23:01:44.664Z,-0.10
2023-01-25T23:04:20.938Z,-0.10
2023-01-25T23:07:03.073Z,-0.10
2023-01-25T23:09:39.498Z,-0.10
2023-01-25T23:12:15.719Z,-0.10
2023-01-25T23:14:54.986Z,-0.10
2023-01-25T23:17:48.732Z,-0.10
2023-01-25T23:20:25.043Z,-0.10
2023-01-25T23:23:01.369Z,-0.10
2023-01-25T23:25:39.508Z,-0.10
2023-01-25T23:28:15.711Z,-0.10
2023-01-25T23:30:52.025Z,-0.20
2023-01-25T23:33:30.811Z,-0.20
2023-01-25T23:36:18.041Z,-0.20
2023-01-25T23:38:55.403Z,-0.20
2023-01-25T23:41:34.605Z,-0.20
2023-01-25T23:44:11.299Z,-0.20
2023-01-25T23:46:48.380Z,-0.22
2023-01-25T23:49:24.772Z,-0.20
2023-01-25T23:52:01.219Z,-0.20
2023-01-25T23:54:37.557Z,-0.26
2023-01-25T23:57:13.763Z,-0.28
2023-01-25T23:59:50.386Z,-0.30
